Aviation Digital Data Service (ADDS)

Output produced by METARs form (0256 UTC 20 January 2022)
found at http://www.aviationweather.gov/metar/data/
 
KRNH 192321Z 2000/2024 30012KT P6SM SKC 
     FM200900 29006KT P6SM SKC